sensor_id;sensor_type;location;lat;lon;timestamp;temperature;humidity
3005;DHT22;1512;51.486;6.610;2023-05-07T00:03:26;16.00;1.00
3005;DHT22;1512;51.486;6.610;2023-05-07T00:07:35;16.00;1.00
3005;DHT22;1512;51.486;6.610;2023-05-07T00:11:44;16.00;99.90
3005;DHT22;1512;51.486;6.610;2023-05-07T00:15:52;16.00;99.90
3005;DHT22;1512;51.486;6.610;2023-05-07T00:20:02;16.00;1.00
3005;DHT22;1512;51.486;6.610;2023-05-07T00:24:11;15.90;1.00
3005;DHT22;1512;51.486;6.610;2023-05-07T00:28:20;15.90;1.00
3005;DHT22;1512;51.486;6.610;2023-05-07T00:32:28;15.90;1.00
3005;DHT22;1512;51.486;6.610;2023-05-07T00:36:37;15.80;1.00
3005;DHT22;1512;51.486;6.610;2023-05-07T00:40:46;15.90;99.90
3005;DHT22;1512;51.486;6.610;2023-05-07T00:44:55;15.80;99.90
3005;DHT22;1512;51.486;6.610;2023-05-07T00:49:25;15.80;99.90
3005;DHT22;1512;51.486;6.610;2023-05-07T00:53:34;15.80;99.90
3005;DHT22;1512;51.486;6.610;2023-05-07T00:57:44;15.80;99.90
3005;DHT22;1512;51.486;6.610;2023-05-07T01:01:53;15.80;1.00
3005;DHT22;1512;51.486;6.610;2023-05-07T01:06:02;15.70;55.00
3005;DHT22;1512;51.486;6.610;2023-05-07T01:10:12;15.70;99.90
3005;DHT22;1512;51.486;6.610;2023-05-07T01:14:21;15.70;28.70
3005;DHT22;1512;51.486;6.610;2023-05-07T01:18:29;15.60;99.90
3005;DHT22;1512;51.486;6.610;2023-05-07T01:22:39;15.60;22.40
3005;DHT22;1512;51.486;6.610;2023-05-07T01:26:50;15.60;99.90
3005;DHT22;1512;51.486;6.610;2023-05-07T01:31:01;15.60;99.90
3005;DHT22;1512;51.486;6.610;2023-05-07T01:35:13;15.60;86.70
3005;DHT22;1512;51.486;6.610;2023-05-07T01:39:43;15.60;1.00
3005;DHT22;1512;51.486;6.610;2023-05-07T01:43:54;15.60;1.00
3005;DHT22;1512;51.486;6.610;2023-05-07T01:48:04;15.50;1.00
3005;DHT22;1512;51.486;6.610;2023-05-07T01:52:13;15.50;41.80
3005;DHT22;1512;51.486;6.610;2023-05-07T01:56:21;15.50;1.00
3005;DHT22;1512;51.486;6.610;2023-05-07T02:00:31;15.50;99.90
3005;DHT22;1512;51.486;6.610;2023-05-07T02:04:44;15.50;99.90
3005;DHT22;1512;51.486;6.610;2023-05-07T02:08:52;15.50;99.90
3005;DHT22;1512;51.486;6.610;2023-05-07T02:13:01;15.50;36.80
3005;DHT22;1512;51.486;6.610;2023-05-07T02:17:10;15.50;1.00
3005;DHT22;1512;51.486;6.610;2023-05-07T02:21:19;15.50;53.60
3005;DHT22;1512;51.486;6.610;2023-05-07T02:25:28;15.50;99.90
3005;DHT22;1512;51.486;6.610;2023-05-07T02:29:37;15.40;99.90
3005;DHT22;1512;51.486;6.610;2023-05-07T02:34:06;15.40;99.90
3005;DHT22;1512;51.486;6.610;2023-05-07T02:38:15;15.40;1.00
3005;DHT22;1512;51.486;6.610;2023-05-07T02:42:23;15.30;1.00
3005;DHT22;1512;51.486;6.610;2023-05-07T02:46:32;15.30;1.00
3005;DHT22;1512;51.486;6.610;2023-05-07T02:51:00;15.30;1.00
3005;DHT22;1512;51.486;6.610;2023-05-07T02:55:09;15.30;1.00
3005;DHT22;1512;51.486;6.610;2023-05-07T02:59:18;15.30;1.00
3005;DHT22;1512;51.486;6.610;2023-05-07T03:03:27;15.30;1.00
3005;DHT22;1512;51.486;6.610;2023-05-07T03:07:36;15.30;1.00
3005;DHT22;1512;51.486;6.610;2023-05-07T03:11:45;15.30;1.00
3005;DHT22;1512;51.486;6.610;2023-05-07T03:15:53;15.30;1.00
3005;DHT22;1512;51.486;6.610;2023-05-07T03:20:03;15.30;1.00
3005;DHT22;1512;51.486;6.610;2023-05-07T03:24:12;15.30;1.00
3005;DHT22;1512;51.486;6.610;2023-05-07T03:28:20;15.30;1.00
3005;DHT22;1512;51.486;6.610;2023-05-07T03:32:29;15.20;1.00
3005;DHT22;1512;51.486;6.610;2023-05-07T03:36:38;15.10;1.00
3005;DHT22;1512;51.486;6.610;2023-05-07T03:40:47;15.10;99.90
3005;DHT22;1512;51.486;6.610;2023-05-07T03:45:01;15.10;99.90
3005;DHT22;1512;51.486;6.610;2023-05-07T03:49:10;15.10;99.90
3005;DHT22;1512;51.486;6.610;2023-05-07T03:53:19;15.00;1.00
3005;DHT22;1512;51.486;6.610;2023-05-07T03:57:27;15.00;99.90
3005;DHT22;1512;51.486;6.610;2023-05-07T04:01:36;15.10;99.90
3005;DHT22;1512;51.486;6.610;2023-05-07T04:05:45;15.00;1.00
3005;DHT22;1512;51.486;6.610;2023-05-07T04:10:14;15.00;1.00
3005;DHT22;1512;51.486;6.610;2023-05-07T04:14:22;15.00;1.00
3005;DHT22;1512;51.486;6.610;2023-05-07T04:18:31;15.00;1.00
3005;DHT22;1512;51.486;6.610;2023-05-07T04:22:59;15.00;1.00
3005;DHT22;1512;51.486;6.610;2023-05-07T04:27:08;15.00;99.90
3005;DHT22;1512;51.486;6.610;2023-05-07T04:31:16;15.00;99.90
3005;DHT22;1512;51.486;6.610;2023-05-07T04:35:25;15.00;99.90
3005;DHT22;1512;51.486;6.610;2023-05-07T04:39:34;15.00;99.90
3005;DHT22;1512;51.486;6.610;2023-05-07T04:43:42;14.90;99.90
3005;DHT22;1512;51.486;6.610;2023-05-07T04:47:51;14.90;1.00
3005;DHT22;1512;51.486;6.610;2023-05-07T04:52:00;14.90;1.00
3005;DHT22;1512;51.486;6.610;2023-05-07T04:56:08;14.80;99.90
3005;DHT22;1512;51.486;6.610;2023-05-07T05:00:17;14.90;99.90
3005;DHT22;1512;51.486;6.610;2023-05-07T05:04:27;14.90;99.90
3005;DHT22;1512;51.486;6.610;2023-05-07T05:08:55;14.90;99.90
3005;DHT22;1512;51.486;6.610;2023-05-07T05:13:03;14.90;99.90
3005;DHT22;1512;51.486;6.610;2023-05-07T05:17:12;14.90;99.90
3005;DHT22;1512;51.486;6.610;2023-05-07T05:21:21;15.00;99.90
3005;DHT22;1512;51.486;6.610;2023-05-07T05:25:49;14.90;1.00
3005;DHT22;1512;51.486;6.610;2023-05-07T05:29:58;15.00;2.60
3005;DHT22;1512;51.486;6.610;2023-05-07T05:34:06;15.00;99.90
3005;DHT22;1512;51.486;6.610;2023-05-07T05:38:15;15.00;1.00
3005;DHT22;1512;51.486;6.610;2023-05-07T05:42:24;15.00;1.00
3005;DHT22;1512;51.486;6.610;2023-05-07T05:46:33;15.10;99.90
3005;DHT22;1512;51.486;6.610;2023-05-07T05:50:43;15.10;1.00
3005;DHT22;1512;51.486;6.610;2023-05-07T05:54:53;15.20;1.00
3005;DHT22;1512;51.486;6.610;2023-05-07T05:59:01;15.40;1.00
3005;DHT22;1512;51.486;6.610;2023-05-07T06:03:11;15.50;1.00
3005;DHT22;1512;51.486;6.610;2023-05-07T06:07:21;15.50;1.00
3005;DHT22;1512;51.486;6.610;2023-05-07T06:11:30;15.60;1.00
3005;DHT22;1512;51.486;6.610;2023-05-07T06:15:39;15.70;1.00
3005;DHT22;1512;51.486;6.610;2023-05-07T06:19:48;15.80;1.00
3005;DHT22;1512;51.486;6.610;2023-05-07T06:23:57;15.90;1.00
3005;DHT22;1512;51.486;6.610;2023-05-07T06:28:06;16.00;1.00
3005;DHT22;1512;51.486;6.610;2023-05-07T06:32:16;16.00;99.90
3005;DHT22;1512;51.486;6.610;2023-05-07T06:36:25;16.10;99.90
3005;DHT22;1512;51.486;6.610;2023-05-07T06:40:34;16.20;99.90
3005;DHT22;1512;51.486;6.610;2023-05-07T06:44:42;16.20;45.00
3005;DHT22;1512;51.486;6.610;2023-05-07T06:48:52;16.40;99.90
3005;DHT22;1512;51.486;6.610;2023-05-07T06:53:20;16.50;1.00
3005;DHT22;1512;51.486;6.610;2023-05-07T06:57:30;16.50;3.10
3005;DHT22;1512;51.486;6.610;2023-05-07T07:01:38;16.50;1.00
3005;DHT22;1512;51.486;6.610;2023-05-07T07:05:50;16.50;1.00
3005;DHT22;1512;51.486;6.610;2023-05-07T07:09:58;16.50;99.90
3005;DHT22;1512;51.486;6.610;2023-05-07T07:14:06;16.60;1.00
3005;DHT22;1512;51.486;6.610;2023-05-07T07:18:15;16.60;1.00
3005;DHT22;1512;51.486;6.610;2023-05-07T07:22:24;16.70;1.00
3005;DHT22;1512;51.486;6.610;2023-05-07T07:26:32;16.80;1.00
3005;DHT22;1512;51.486;6.610;2023-05-07T07:30:41;16.90;1.00
3005;DHT22;1512;51.486;6.610;2023-05-07T07:34:50;17.10;99.90
3005;DHT22;1512;51.486;6.610;2023-05-07T07:38:58;17.20;14.20
3005;DHT22;1512;51.486;6.610;2023-05-07T07:43:07;17.30;99.90
3005;DHT22;1512;51.486;6.610;2023-05-07T07:47:18;17.30;99.90
3005;DHT22;1512;51.486;6.610;2023-05-07T07:51:26;17.30;1.00
3005;DHT22;1512;51.486;6.610;2023-05-07T07:55:41;17.50;1.00
3005;DHT22;1512;51.486;6.610;2023-05-07T07:59:50;17.80;1.00
3005;DHT22;1512;51.486;6.610;2023-05-07T08:03:59;17.90;1.00
3005;DHT22;1512;51.486;6.610;2023-05-07T08:08:27;18.10;1.00
3005;DHT22;1512;51.486;6.610;2023-05-07T08:12:36;18.20;1.00
3005;DHT22;1512;51.486;6.610;2023-05-07T08:16:46;18.20;1.00
3005;DHT22;1512;51.486;6.610;2023-05-07T08:20:55;18.20;1.00
3005;DHT22;1512;51.486;6.610;2023-05-07T08:25:03;18.20;1.00
3005;DHT22;1512;51.486;6.610;2023-05-07T08:29:12;18.20;1.00
3005;DHT22;1512;51.486;6.610;2023-05-07T08:33:21;18.30;1.00
3005;DHT22;1512;51.486;6.610;2023-05-07T08:37:29;18.40;1.00
3005;DHT22;1512;51.486;6.610;2023-05-07T08:41:40;18.50;1.00
3005;DHT22;1512;51.486;6.610;2023-05-07T08:45:53;18.60;1.00
3005;DHT22;1512;51.486;6.610;2023-05-07T08:50:05;18.70;1.00
3005;DHT22;1512;51.486;6.610;2023-05-07T08:54:16;19.00;1.00
3005;DHT22;1512;51.486;6.610;2023-05-07T08:58:25;19.10;1.00
3005;DHT22;1512;51.486;6.610;2023-05-07T09:02:35;19.20;1.00
3005;DHT22;1512;51.486;6.610;2023-05-07T09:06:44;19.30;1.00
3005;DHT22;1512;51.486;6.610;2023-05-07T09:10:56;19.40;1.00
3005;DHT22;1512;51.486;6.610;2023-05-07T09:15:06;19.50;1.00
3005;DHT22;1512;51.486;6.610;2023-05-07T09:19:16;19.60;1.00
3005;DHT22;1512;51.486;6.610;2023-05-07T09:23:26;19.90;1.00
3005;DHT22;1512;51.486;6.610;2023-05-07T09:27:35;20.00;1.00
3005;DHT22;1512;51.486;6.610;2023-05-07T09:31:46;20.00;1.00
3005;DHT22;1512;51.486;6.610;2023-05-07T09:35:54;20.20;1.00
3005;DHT22;1512;51.486;6.610;2023-05-07T09:40:03;20.40;1.00
3005;DHT22;1512;51.486;6.610;2023-05-07T09:44:17;20.60;1.00
3005;DHT22;1512;51.486;6.610;2023-05-07T09:48:27;20.80;1.00
3005;DHT22;1512;51.486;6.610;2023-05-07T09:52:37;21.00;1.00
3005;DHT22;1512;51.486;6.610;2023-05-07T09:56:48;21.00;1.00
3005;DHT22;1512;51.486;6.610;2023-05-07T10:00:58;21.00;1.00
3005;DHT22;1512;51.486;6.610;2023-05-07T10:05:08;20.80;1.00
3005;DHT22;1512;51.486;6.610;2023-05-07T10:09:17;20.90;1.00
3005;DHT22;1512;51.486;6.610;2023-05-07T10:13:27;21.00;1.00
3005;DHT22;1512;51.486;6.610;2023-05-07T10:17:39;21.30;1.00
3005;DHT22;1512;51.486;6.610;2023-05-07T10:21:51;21.50;1.00
3005;DHT22;1512;51.486;6.610;2023-05-07T10:26:02;21.50;1.00
3005;DHT22;1512;51.486;6.610;2023-05-07T10:34:47;21.50;1.00
3005;DHT22;1512;51.486;6.610;2023-05-07T10:38:55;21.50;1.00
3005;DHT22;1512;51.486;6.610;2023-05-07T10:43:04;21.40;1.00
3005;DHT22;1512;51.486;6.610;2023-05-07T10:47:16;21.30;1.00
3005;DHT22;1512;51.486;6.610;2023-05-07T10:51:27;21.40;1.00
3005;DHT22;1512;51.486;6.610;2023-05-07T10:55:36;21.60;1.00
3005;DHT22;1512;51.486;6.610;2023-05-07T10:59:45;21.70;1.00
3005;DHT22;1512;51.486;6.610;2023-05-07T11:04:14;21.70;1.00
3005;DHT22;1512;51.486;6.610;2023-05-07T11:08:23;21.80;1.00
3005;DHT22;1512;51.486;6.610;2023-05-07T11:16:50;21.80;1.00
3005;DHT22;1512;51.486;6.610;2023-05-07T11:21:00;21.70;1.00
3005;DHT22;1512;51.486;6.610;2023-05-07T11:25:11;21.60;1.00
3005;DHT22;1512;51.486;6.610;2023-05-07T11:29:21;21.70;1.00
3005;DHT22;1512;51.486;6.610;2023-05-07T11:33:31;21.90;1.00
3005;DHT22;1512;51.486;6.610;2023-05-07T11:37:39;22.10;1.00
3005;DHT22;1512;51.486;6.610;2023-05-07T11:41:48;22.10;1.00
3005;DHT22;1512;51.486;6.610;2023-05-07T11:46:11;22.10;1.00
3005;DHT22;1512;51.486;6.610;2023-05-07T11:50:21;21.90;1.00
3005;DHT22;1512;51.486;6.610;2023-05-07T11:54:37;21.80;1.00
3005;DHT22;1512;51.486;6.610;2023-05-07T11:58:47;21.70;1.00
3005;DHT22;1512;51.486;6.610;2023-05-07T12:02:56;21.60;1.00
3005;DHT22;1512;51.486;6.610;2023-05-07T12:07:05;21.60;1.00
3005;DHT22;1512;51.486;6.610;2023-05-07T12:11:23;21.50;1.00
3005;DHT22;1512;51.486;6.610;2023-05-07T12:15:34;21.50;1.00
3005;DHT22;1512;51.486;6.610;2023-05-07T12:19:45;21.60;1.00
3005;DHT22;1512;51.486;6.610;2023-05-07T12:23:54;21.60;1.00
3005;DHT22;1512;51.486;6.610;2023-05-07T12:28:04;21.50;1.00
3005;DHT22;1512;51.486;6.610;2023-05-07T12:32:20;21.50;1.00
3005;DHT22;1512;51.486;6.610;2023-05-07T12:36:24;21.40;1.00
3005;DHT22;1512;51.486;6.610;2023-05-07T12:40:38;21.40;1.00
3005;DHT22;1512;51.486;6.610;2023-05-07T12:44:47;21.40;1.00
3005;DHT22;1512;51.486;6.610;2023-05-07T12:48:55;21.40;1.00
3005;DHT22;1512;51.486;6.610;2023-05-07T12:53:05;21.50;1.00
3005;DHT22;1512;51.486;6.610;2023-05-07T12:57:13;21.50;1.00
3005;DHT22;1512;51.486;6.610;2023-05-07T13:01:28;21.60;1.00
3005;DHT22;1512;51.486;6.610;2023-05-07T13:05:33;21.60;1.00
3005;DHT22;1512;51.486;6.610;2023-05-07T13:09:42;21.60;1.00
3005;DHT22;1512;51.486;6.610;2023-05-07T13:13:53;21.60;1.00
3005;DHT22;1512;51.486;6.610;2023-05-07T13:18:02;21.60;1.00
3005;DHT22;1512;51.486;6.610;2023-05-07T13:22:17;21.50;1.00
3005;DHT22;1512;51.486;6.610;2023-05-07T13:26:26;21.40;1.00
3005;DHT22;1512;51.486;6.610;2023-05-07T13:30:35;21.40;1.00
3005;DHT22;1512;51.486;6.610;2023-05-07T13:34:44;21.30;1.00
3005;DHT22;1512;51.486;6.610;2023-05-07T13:38:52;21.20;1.00
3005;DHT22;1512;51.486;6.610;2023-05-07T13:43:01;21.10;1.00
3005;DHT22;1512;51.486;6.610;2023-05-07T13:47:10;21.00;1.00
3005;DHT22;1512;51.486;6.610;2023-05-07T13:51:19;21.00;1.00
3005;DHT22;1512;51.486;6.610;2023-05-07T13:55:29;21.00;1.00
3005;DHT22;1512;51.486;6.610;2023-05-07T13:59:37;20.90;1.00
3005;DHT22;1512;51.486;6.610;2023-05-07T14:03:46;20.80;1.00
3005;DHT22;1512;51.486;6.610;2023-05-07T14:07:57;20.90;1.00
3005;DHT22;1512;51.486;6.610;2023-05-07T14:12:06;20.90;1.00
3005;DHT22;1512;51.486;6.610;2023-05-07T14:16:15;20.90;1.00
3005;DHT22;1512;51.486;6.610;2023-05-07T14:20:24;20.90;1.00
3005;DHT22;1512;51.486;6.610;2023-05-07T14:24:36;20.80;1.00
3005;DHT22;1512;51.486;6.610;2023-05-07T14:28:45;20.90;1.00
3005;DHT22;1512;51.486;6.610;2023-05-07T14:32:54;20.90;1.00
3005;DHT22;1512;51.486;6.610;2023-05-07T14:37:04;20.90;1.00
3005;DHT22;1512;51.486;6.610;2023-05-07T14:41:13;20.90;1.00
3005;DHT22;1512;51.486;6.610;2023-05-07T14:45:22;20.80;1.00
3005;DHT22;1512;51.486;6.610;2023-05-07T14:49:31;20.70;1.00
3005;DHT22;1512;51.486;6.610;2023-05-07T14:53:41;20.60;1.00
3005;DHT22;1512;51.486;6.610;2023-05-07T14:57:50;20.50;1.00
3005;DHT22;1512;51.486;6.610;2023-05-07T15:06:14;20.40;1.00
3005;DHT22;1512;51.486;6.610;2023-05-07T15:10:23;20.50;1.00
3005;DHT22;1512;51.486;6.610;2023-05-07T15:14:32;20.50;1.00
3005;DHT22;1512;51.486;6.610;2023-05-07T15:18:40;20.60;1.00
3005;DHT22;1512;51.486;6.610;2023-05-07T15:22:49;20.50;1.00
3005;DHT22;1512;51.486;6.610;2023-05-07T15:26:58;20.40;1.00
3005;DHT22;1512;51.486;6.610;2023-05-07T15:31:10;20.30;1.00
3005;DHT22;1512;51.486;6.610;2023-05-07T15:35:19;20.20;1.00
3005;DHT22;1512;51.486;6.610;2023-05-07T15:39:30;20.10;1.00
3005;DHT22;1512;51.486;6.610;2023-05-07T15:43:47;20.10;1.00
3005;DHT22;1512;51.486;6.610;2023-05-07T15:47:56;20.00;1.00
3005;DHT22;1512;51.486;6.610;2023-05-07T15:52:05;20.10;1.00
3005;DHT22;1512;51.486;6.610;2023-05-07T15:56:13;20.40;1.00
3005;DHT22;1512;51.486;6.610;2023-05-07T16:00:22;20.50;1.00
3005;DHT22;1512;51.486;6.610;2023-05-07T16:04:31;20.60;1.00
3005;DHT22;1512;51.486;6.610;2023-05-07T16:08:39;20.70;1.00
3005;DHT22;1512;51.486;6.610;2023-05-07T16:12:50;20.60;1.00
3005;DHT22;1512;51.486;6.610;2023-05-07T16:16:58;20.60;1.00
3005;DHT22;1512;51.486;6.610;2023-05-07T16:21:08;20.40;1.00
3005;DHT22;1512;51.486;6.610;2023-05-07T16:25:17;20.30;1.00
3005;DHT22;1512;51.486;6.610;2023-05-07T16:29:25;20.20;1.00
3005;DHT22;1512;51.486;6.610;2023-05-07T16:33:34;20.30;1.00
3005;DHT22;1512;51.486;6.610;2023-05-07T16:37:44;20.10;1.00
3005;DHT22;1512;51.486;6.610;2023-05-07T16:41:53;20.00;1.00
3005;DHT22;1512;51.486;6.610;2023-05-07T16:46:01;20.10;1.00
3005;DHT22;1512;51.486;6.610;2023-05-07T16:50:10;20.20;1.00
3005;DHT22;1512;51.486;6.610;2023-05-07T16:54:19;20.10;1.00
3005;DHT22;1512;51.486;6.610;2023-05-07T16:58:28;20.00;1.00
3005;DHT22;1512;51.486;6.610;2023-05-07T17:02:38;19.90;1.00
3005;DHT22;1512;51.486;6.610;2023-05-07T17:06:48;19.80;1.00
3005;DHT22;1512;51.486;6.610;2023-05-07T17:10:57;19.60;1.00
3005;DHT22;1512;51.486;6.610;2023-05-07T17:15:06;19.50;1.00
3005;DHT22;1512;51.486;6.610;2023-05-07T17:19:15;19.50;1.00
3005;DHT22;1512;51.486;6.610;2023-05-07T17:23:24;19.40;1.00
3005;DHT22;1512;51.486;6.610;2023-05-07T17:27:37;19.40;1.00
3005;DHT22;1512;51.486;6.610;2023-05-07T17:31:46;19.40;1.00
3005;DHT22;1512;51.486;6.610;2023-05-07T17:35:54;19.40;1.00
3005;DHT22;1512;51.486;6.610;2023-05-07T17:40:03;19.40;1.00
3005;DHT22;1512;51.486;6.610;2023-05-07T17:44:12;19.30;1.00
3005;DHT22;1512;51.486;6.610;2023-05-07T17:48:21;19.10;1.00
3005;DHT22;1512;51.486;6.610;2023-05-07T17:52:29;18.90;1.00
3005;DHT22;1512;51.486;6.610;2023-05-07T17:56:39;18.70;1.00
3005;DHT22;1512;51.486;6.610;2023-05-07T18:00:48;18.70;1.00
3005;DHT22;1512;51.486;6.610;2023-05-07T18:04:57;18.60;1.00
3005;DHT22;1512;51.486;6.610;2023-05-07T18:09:07;18.60;1.00
3005;DHT22;1512;51.486;6.610;2023-05-07T18:13:16;18.30;1.00
3005;DHT22;1512;51.486;6.610;2023-05-07T18:17:24;18.20;1.00
3005;DHT22;1512;51.486;6.610;2023-05-07T18:21:36;18.30;1.00
3005;DHT22;1512;51.486;6.610;2023-05-07T18:25:45;18.40;1.00
3005;DHT22;1512;51.486;6.610;2023-05-07T18:29:54;18.50;1.00
3005;DHT22;1512;51.486;6.610;2023-05-07T18:34:03;18.50;1.00
3005;DHT22;1512;51.486;6.610;2023-05-07T18:38:13;18.50;1.00
3005;DHT22;1512;51.486;6.610;2023-05-07T18:42:21;18.40;1.00
3005;DHT22;1512;51.486;6.610;2023-05-07T18:46:30;18.40;1.00
3005;DHT22;1512;51.486;6.610;2023-05-07T18:50:41;18.10;1.00
3005;DHT22;1512;51.486;6.610;2023-05-07T18:54:50;18.00;29.70
3005;DHT22;1512;51.486;6.610;2023-05-07T18:58:59;17.90;99.90
3005;DHT22;1512;51.486;6.610;2023-05-07T19:03:07;17.80;99.90
3005;DHT22;1512;51.486;6.610;2023-05-07T19:07:16;17.80;99.90
3005;DHT22;1512;51.486;6.610;2023-05-07T19:11:25;17.90;99.90
3005;DHT22;1512;51.486;6.610;2023-05-07T19:15:34;17.90;99.90
3005;DHT22;1512;51.486;6.610;2023-05-07T19:19:42;17.70;99.90
3005;DHT22;1512;51.486;6.610;2023-05-07T19:23:53;17.60;99.90
3005;DHT22;1512;51.486;6.610;2023-05-07T19:28:03;17.50;99.90
3005;DHT22;1512;51.486;6.610;2023-05-07T19:32:12;17.50;99.90
3005;DHT22;1512;51.486;6.610;2023-05-07T19:36:21;17.50;99.90
3005;DHT22;1512;51.486;6.610;2023-05-07T19:40:29;17.50;99.90
3005;DHT22;1512;51.486;6.610;2023-05-07T19:44:39;17.40;99.90
3005;DHT22;1512;51.486;6.610;2023-05-07T19:49:07;17.30;99.90
3005;DHT22;1512;51.486;6.610;2023-05-07T19:53:17;17.20;99.90
3005;DHT22;1512;51.486;6.610;2023-05-07T19:57:26;17.20;1.00
3005;DHT22;1512;51.486;6.610;2023-05-07T20:01:35;17.20;1.00
3005;DHT22;1512;51.486;6.610;2023-05-07T20:05:46;17.20;1.00
3005;DHT22;1512;51.486;6.610;2023-05-07T20:09:55;17.10;1.00
3005;DHT22;1512;51.486;6.610;2023-05-07T20:14:04;17.00;1.00
3005;DHT22;1512;51.486;6.610;2023-05-07T20:18:13;17.00;1.00
3005;DHT22;1512;51.486;6.610;2023-05-07T20:22:22;17.00;1.00
3005;DHT22;1512;51.486;6.610;2023-05-07T20:26:31;17.00;1.00
3005;DHT22;1512;51.486;6.610;2023-05-07T20:30:40;17.00;1.00
3005;DHT22;1512;51.486;6.610;2023-05-07T20:34:49;17.00;1.00
3005;DHT22;1512;51.486;6.610;2023-05-07T20:38:57;17.00;1.00
3005;DHT22;1512;51.486;6.610;2023-05-07T20:43:06;17.00;1.00
3005;DHT22;1512;51.486;6.610;2023-05-07T20:47:15;17.00;1.00
3005;DHT22;1512;51.486;6.610;2023-05-07T20:51:24;16.90;1.00
3005;DHT22;1512;51.486;6.610;2023-05-07T20:55:53;16.90;1.00
3005;DHT22;1512;51.486;6.610;2023-05-07T21:00:02;16.90;1.00
3005;DHT22;1512;51.486;6.610;2023-05-07T21:04:11;16.90;1.00
3005;DHT22;1512;51.486;6.610;2023-05-07T21:08:20;16.80;1.00
3005;DHT22;1512;51.486;6.610;2023-05-07T21:12:28;16.80;1.00
3005;DHT22;1512;51.486;6.610;2023-05-07T21:16:37;16.80;1.00
3005;DHT22;1512;51.486;6.610;2023-05-07T21:20:47;16.80;1.00
3005;DHT22;1512;51.486;6.610;2023-05-07T21:24:56;16.80;1.00
3005;DHT22;1512;51.486;6.610;2023-05-07T21:29:04;16.70;1.00
3005;DHT22;1512;51.486;6.610;2023-05-07T21:33:13;16.70;1.00
3005;DHT22;1512;51.486;6.610;2023-05-07T21:37:22;16.70;1.00
3005;DHT22;1512;51.486;6.610;2023-05-07T21:41:31;16.60;1.00
3005;DHT22;1512;51.486;6.610;2023-05-07T21:45:39;16.60;1.00
3005;DHT22;1512;51.486;6.610;2023-05-07T21:49:48;16.60;1.00
3005;DHT22;1512;51.486;6.610;2023-05-07T21:53:57;16.60;1.00
3005;DHT22;1512;51.486;6.610;2023-05-07T21:58:05;16.50;99.90
3005;DHT22;1512;51.486;6.610;2023-05-07T22:02:14;16.40;99.90
3005;DHT22;1512;51.486;6.610;2023-05-07T22:06:23;16.40;99.90
3005;DHT22;1512;51.486;6.610;2023-05-07T22:10:32;16.40;99.90
3005;DHT22;1512;51.486;6.610;2023-05-07T22:14:40;16.40;99.90
3005;DHT22;1512;51.486;6.610;2023-05-07T22:18:49;16.40;99.90
3005;DHT22;1512;51.486;6.610;2023-05-07T22:22:58;16.40;99.90
3005;DHT22;1512;51.486;6.610;2023-05-07T22:27:06;16.40;99.90
3005;DHT22;1512;51.486;6.610;2023-05-07T22:31:20;16.40;1.00
3005;DHT22;1512;51.486;6.610;2023-05-07T22:35:29;16.40;1.00
3005;DHT22;1512;51.486;6.610;2023-05-07T22:39:38;16.40;1.00
3005;DHT22;1512;51.486;6.610;2023-05-07T22:43:48;16.40;1.00
3005;DHT22;1512;51.486;6.610;2023-05-07T22:47:57;16.40;1.00
3005;DHT22;1512;51.486;6.610;2023-05-07T22:52:06;16.30;99.90
3005;DHT22;1512;51.486;6.610;2023-05-07T22:56:34;16.30;99.90
3005;DHT22;1512;51.486;6.610;2023-05-07T23:00:42;16.30;99.90
3005;DHT22;1512;51.486;6.610;2023-05-07T23:04:51;16.30;99.90
3005;DHT22;1512;51.486;6.610;2023-05-07T23:09:00;16.30;1.00
3005;DHT22;1512;51.486;6.610;2023-05-07T23:13:09;16.30;82.60
3005;DHT22;1512;51.486;6.610;2023-05-07T23:17:19;16.30;8.00
3005;DHT22;1512;51.486;6.610;2023-05-07T23:21:28;16.30;1.00
3005;DHT22;1512;51.486;6.610;2023-05-07T23:25:37;16.30;7.90
3005;DHT22;1512;51.486;6.610;2023-05-07T23:29:45;16.20;99.90
3005;DHT22;1512;51.486;6.610;2023-05-07T23:33:54;16.20;1.00
3005;DHT22;1512;51.486;6.610;2023-05-07T23:38:02;16.20;1.00
3005;DHT22;1512;51.486;6.610;2023-05-07T23:42:11;16.20;1.00
3005;DHT22;1512;51.486;6.610;2023-05-07T23:46:20;16.20;1.00
3005;DHT22;1512;51.486;6.610;2023-05-07T23:50:48;16.10;1.00
3005;DHT22;1512;51.486;6.610;2023-05-07T23:54:57;16.10;1.00
3005;DHT22;1512;51.486;6.610;2023-05-07T23:59:06;16.10;99.90
